Time;durP1;ratioP1;P1;durP2;ratioP2;P2;SDS_P1;SDS_P2;PMS_P1;PMS_P2;Temp;Humidity;BMP_temperature;BMP_pressure;BME280_temperature;BME280_humidity;BME280_pressure;Samples;Min_cycle;Max_cycle;Signal;HPM_P1;HPM_P2
2021/05/26 00:01:19;;;;;;;3.97;1.97;;;21.10;34.80;;;;;;8259504;28;20089;-46
2021/05/26 00:05:20;;;;;;;4.90;1.60;;;20.70;33.60;;;;;;8287359;28;20038;-47
2021/05/26 00:09:21;;;;;;;4.47;1.33;;;20.30;34.70;;;;;;8274252;28;20273;-47
2021/05/26 00:13:22;;;;;;;3.20;1.57;;;20.20;36.40;;;;;;8282206;28;20398;-47
2021/05/26 00:17:22;;;;;;;2.80;1.15;;;20.30;37.00;;;;;;8295214;28;20502;-47
2021/05/26 00:21:24;;;;;;;3.63;1.63;;;20.40;36.70;;;;;;8290770;28;20034;-47
2021/05/26 00:25:25;;;;;;;2.67;1.17;;;20.50;36.40;;;;;;8271855;28;20035;-47
2021/05/26 00:29:25;;;;;;;1.67;1.13;;;20.60;36.30;;;;;;8264718;28;20073;-47
2021/05/26 00:33:27;;;;;;;3.57;1.00;;;20.60;36.10;;;;;;8270479;28;20502;-47
2021/05/26 00:37:27;;;;;;;;;;;20.60;36.10;;;;;;8289695;28;20042;-46
2021/05/26 00:41:29;;;;;;;2.90;1.27;;;20.60;36.10;;;;;;8272571;28;19973;-47
2021/05/26 00:45:30;;;;;;;3.28;1.08;;;20.60;36.10;;;;;;8298386;28;20057;-48
2021/05/26 00:49:31;;;;;;;3.20;1.25;;;20.60;36.10;;;;;;8301032;28;20137;-50
2021/05/26 00:53:33;;;;;;;1.70;1.30;;;20.60;36.20;;;;;;8298295;28;20033;-47
2021/05/26 00:57:33;;;;;;;3.88;1.17;;;20.60;36.20;;;;;;8297660;28;20414;-47
2021/05/26 01:01:34;;;;;;;2.60;1.40;;;20.60;36.20;;;;;;8296703;28;20041;-48
2021/05/26 01:05:35;;;;;;;3.88;1.30;;;20.60;36.20;;;;;;8297176;28;20030;-47
2021/05/26 01:09:36;;;;;;;1.70;1.10;;;20.60;36.20;;;;;;8301949;28;20042;-47
2021/05/26 01:13:36;;;;;;;3.30;1.03;;;20.50;36.20;;;;;;8295975;28;20030;-47
2021/05/26 01:17:37;;;;;;;1.33;0.93;;;20.50;36.20;;;;;;8288456;28;20292;-47
2021/05/26 01:21:38;;;;;;;3.47;1.23;;;20.50;36.30;;;;;;8281030;28;20030;-47
2021/05/26 01:25:39;;;;;;;1.13;0.90;;;20.50;36.30;;;;;;8299639;28;20091;-48
2021/05/26 01:29:41;;;;;;;4.03;1.73;;;20.50;36.30;;;;;;8296726;28;20475;-47
2021/05/26 01:33:41;;;;;;;2.58;1.10;;;20.50;36.30;;;;;;8279375;28;20066;-47
2021/05/26 01:37:43;;;;;;;1.70;1.10;;;20.40;36.20;;;;;;8262509;28;20046;-46
2021/05/26 01:41:44;;;;;;;1.23;1.10;;;20.40;36.30;;;;;;8273271;28;20042;-46
2021/05/26 01:45:45;;;;;;;3.50;1.38;;;20.40;36.30;;;;;;8282831;28;20108;-46
2021/05/26 01:49:45;;;;;;;3.20;1.20;;;20.40;36.30;;;;;;8287829;28;20046;-47
2021/05/26 01:53:46;;;;;;;2.30;0.97;;;20.40;36.30;;;;;;8296306;28;20505;-46
2021/05/26 01:57:47;;;;;;;2.72;1.10;;;20.40;36.30;;;;;;8295628;28;20084;-47
2021/05/26 02:01:47;;;;;;;1.50;0.90;;;20.30;36.30;;;;;;8298388;28;20490;-46
2021/05/26 02:05:50;;;;;;;2.70;1.07;;;20.30;36.30;;;;;;8295503;28;20641;-47
2021/05/26 02:09:50;;;;;;;1.73;1.15;;;20.30;36.30;;;;;;8276831;28;20109;-47
2021/05/26 02:13:51;;;;;;;1.30;1.00;;;20.30;36.30;;;;;;8288535;28;20041;-47
2021/05/26 02:17:51;;;;;;;2.23;1.10;;;20.30;36.40;;;;;;8299980;28;20045;-46
2021/05/26 02:21:52;;;;;;;1.83;1.00;;;20.30;36.40;;;;;;8276315;28;20045;-47
2021/05/26 02:25:52;;;;;;;2.20;1.20;;;20.30;36.40;;;;;;8264604;28;20031;-47
2021/05/26 02:29:53;;;;;;;2.53;1.27;;;20.30;36.50;;;;;;8284209;28;20491;-46
2021/05/26 02:33:53;;;;;;;3.30;1.20;;;20.20;36.40;;;;;;8281326;28;24449;-46
2021/05/26 02:37:54;;;;;;;1.53;1.17;;;20.20;36.50;;;;;;8294830;28;20391;-48
2021/05/26 02:41:54;;;;;;;2.63;1.10;;;20.20;36.50;;;;;;8273281;28;20038;-48
2021/05/26 02:45:55;;;;;;;2.70;1.00;;;20.20;36.40;;;;;;8293603;28;20038;-46
2021/05/26 02:49:55;;;;;;;1.17;0.90;;;20.20;36.50;;;;;;8292511;28;20155;-47
2021/05/26 02:53:56;;;;;;;1.23;0.83;;;20.20;36.50;;;;;;8298231;28;20026;-47
2021/05/26 02:57:57;;;;;;;0.93;0.80;;;20.10;36.50;;;;;;8294075;28;20112;-47
2021/05/26 03:01:57;;;;;;;1.27;0.93;;;20.10;36.50;;;;;;8292313;28;20044;-46
2021/05/26 03:05:58;;;;;;;1.80;0.87;;;20.10;36.50;;;;;;8282563;28;20038;-47
2021/05/26 03:09:58;;;;;;;1.57;1.07;;;20.10;36.50;;;;;;8263365;28;20034;-47
2021/05/26 03:13:59;;;;;;;1.63;1.00;;;20.10;36.60;;;;;;8266096;28;20038;-47
2021/05/26 03:17:59;;;;;;;1.27;0.90;;;20.10;36.60;;;;;;8281829;28;20052;-47
2021/05/26 03:22:00;;;;;;;1.53;0.80;;;20.00;36.60;;;;;;8280488;28;20415;-46
2021/05/26 03:26:00;;;;;;;1.47;1.03;;;20.10;36.60;;;;;;8287723;28;20045;-46
2021/05/26 03:30:04;;;;;;;2.27;1.10;;;20.00;36.60;;;;;;8277046;28;20034;-47
2021/05/26 03:34:05;;;;;;;1.77;0.85;;;20.10;36.60;;;;;;8292934;28;20128;-48
2021/05/26 03:38:06;;;;;;;1.13;0.90;;;20.00;36.60;;;;;;8291739;28;20026;-47
2021/05/26 03:42:07;;;;;;;0.98;0.80;;;20.00;36.60;;;;;;8280227;28;20065;-51
2021/05/26 03:46:07;;;;;;;1.98;1.10;;;20.00;36.60;;;;;;8264714;28;20034;-48
2021/05/26 03:50:13;;;;;;;2.03;0.90;;;20.00;36.60;;;;;;8282958;28;20181;-48
2021/05/26 03:54:13;;;;;;;0.95;0.80;;;20.00;36.60;;;;;;8273699;28;20038;-46
2021/05/26 03:58:15;;;;;;;1.00;0.80;;;20.00;36.60;;;;;;8271019;28;20438;-47
2021/05/26 04:02:15;;;;;;;;;;;19.90;36.60;;;;;;8288910;28;20030;-47
2021/05/26 04:06:16;;;;;;;2.50;1.17;;;20.00;36.70;;;;;;8282983;28;19914;-48
2021/05/26 04:10:16;;;;;;;1.97;0.90;;;19.90;36.60;;;;;;8260144;28;20129;-47
2021/05/26 04:14:17;;;;;;;0.83;0.73;;;19.90;36.60;;;;;;8258349;28;20077;-47
2021/05/26 04:18:17;;;;;;;1.57;0.80;;;19.90;36.60;;;;;;8273829;28;20034;-47
2021/05/26 04:22:18;;;;;;;2.97;1.23;;;20.00;36.60;;;;;;8274665;28;20056;-46
2021/05/26 04:26:18;;;;;;;1.73;0.90;;;19.90;36.60;;;;;;8287858;28;20034;-47
2021/05/26 04:30:20;;;;;;;2.10;1.03;;;19.90;36.60;;;;;;8292331;28;20038;-47
2021/05/26 04:34:20;;;;;;;;;;;20.00;36.60;;;;;;8292462;28;20487;-47
2021/05/26 04:38:21;;;;;;;1.17;0.90;;;19.90;36.60;;;;;;8293508;28;19922;-47
2021/05/26 04:42:21;;;;;;;1.37;0.80;;;19.90;36.60;;;;;;8293859;28;20076;-47
2021/05/26 04:46:22;;;;;;;2.03;0.80;;;19.90;36.60;;;;;;8291294;28;20042;-47
2021/05/26 04:50:24;;;;;;;0.90;0.80;;;19.90;36.60;;;;;;8290269;28;20390;-47
2021/05/26 04:54:26;;;;;;;1.83;0.82;;;19.90;36.70;;;;;;8291236;28;20038;-47
2021/05/26 04:58:26;;;;;;;1.30;0.80;;;19.90;36.60;;;;;;8295794;28;20042;-47
2021/05/26 05:02:27;;;;;;;2.20;0.90;;;19.90;36.70;;;;;;8258664;28;20033;-46
2021/05/26 05:06:27;;;;;;;2.63;1.00;;;19.90;36.70;;;;;;8259096;28;20073;-46
2021/05/26 05:10:28;;;;;;;1.10;0.90;;;19.90;36.70;;;;;;8262386;28;20031;-46
2021/05/26 05:14:29;;;;;;;1.00;0.90;;;19.90;36.70;;;;;;8299429;28;20045;-46
2021/05/26 05:18:29;;;;;;;1.37;0.97;;;19.90;36.70;;;;;;8297324;28;20040;-47
2021/05/26 05:22:30;;;;;;;1.97;0.80;;;19.90;36.70;;;;;;8297130;28;20127;-48
2021/05/26 05:26:30;;;;;;;3.00;1.17;;;19.90;36.70;;;;;;8263369;28;20067;-47
2021/05/26 05:30:32;;;;;;;1.33;1.10;;;19.90;36.70;;;;;;8264648;28;20038;-46
2021/05/26 05:34:32;;;;;;;0.93;0.80;;;19.90;36.70;;;;;;8268544;28;20069;-50
2021/05/26 05:38:34;;;;;;;1.40;1.02;;;19.90;36.70;;;;;;8263066;28;20041;-47
2021/05/26 05:42:35;;;;;;;1.17;0.80;;;19.90;36.70;;;;;;8264056;28;20036;-50
2021/05/26 05:46:35;;;;;;;1.63;0.90;;;19.90;36.70;;;;;;8262317;28;20033;-46
2021/05/26 05:50:36;;;;;;;1.20;0.80;;;19.90;36.70;;;;;;8236002;28;20023;-47
2021/05/26 05:54:38;;;;;;;2.55;1.00;;;19.90;36.70;;;;;;8275896;28;20038;-46
2021/05/26 05:58:38;;;;;;;1.60;0.85;;;19.90;36.70;;;;;;8269423;28;20068;-47
2021/05/26 06:02:39;;;;;;;1.07;0.70;;;19.90;36.70;;;;;;8263407;28;20035;-48
2021/05/26 06:06:39;;;;;;;0.93;0.73;;;19.90;36.70;;;;;;8267699;28;20034;-46
2021/05/26 06:10:40;;;;;;;2.73;0.87;;;19.90;36.70;;;;;;8261870;28;20117;-48
2021/05/26 06:14:41;;;;;;;2.60;0.90;;;19.90;36.70;;;;;;8263187;28;20050;-47
2021/05/26 06:18:42;;;;;;;1.88;1.00;;;19.90;36.80;;;;;;8262852;28;20540;-47
2021/05/26 06:22:45;;;;;;;1.65;1.08;;;19.90;36.70;;;;;;8259964;28;20096;-47
2021/05/26 06:26:45;;;;;;;1.30;1.05;;;19.90;36.70;;;;;;8267346;28;20062;-48
2021/05/26 06:30:47;;;;;;;2.30;0.80;;;19.90;36.70;;;;;;8262981;28;20026;-47
2021/05/26 06:34:50;;;;;;;1.25;0.90;;;19.90;36.70;;;;;;8285256;28;20052;-47
2021/05/26 06:38:50;;;;;;;1.42;0.93;;;19.90;36.70;;;;;;8262081;28;20034;-46
2021/05/26 06:42:51;;;;;;;1.13;0.87;;;19.90;36.70;;;;;;8285393;28;20030;-46
2021/05/26 06:46:51;;;;;;;3.07;1.10;;;19.90;36.70;;;;;;8266001;28;20038;-47
2021/05/26 06:50:52;;;;;;;1.07;0.73;;;19.90;36.70;;;;;;8272652;28;20072;-49
2021/05/26 06:54:53;;;;;;;1.73;0.83;;;19.90;36.70;;;;;;8294259;28;20042;-47
2021/05/26 06:58:53;;;;;;;2.30;0.93;;;19.90;36.70;;;;;;8289895;28;20030;-48
2021/05/26 07:02:54;;;;;;;1.27;1.17;;;19.90;36.70;;;;;;8266005;28;20057;-48
2021/05/26 07:06:55;;;;;;;1.53;0.87;;;19.90;36.70;;;;;;8261400;28;20038;-47
2021/05/26 07:10:56;;;;;;;1.38;0.85;;;19.90;36.70;;;;;;8286824;28;20233;-46
2021/05/26 07:14:57;;;;;;;0.77;0.63;;;19.90;36.70;;;;;;8282418;28;20502;-49
2021/05/26 07:18:59;;;;;;;1.27;0.87;;;19.90;36.70;;;;;;8284824;28;20038;-48
2021/05/26 07:23:00;;;;;;;1.38;0.90;;;19.90;36.60;;;;;;8288220;28;20049;-48
2021/05/26 07:27:01;;;;;;;1.10;0.95;;;19.90;36.60;;;;;;8272587;28;20398;-47
2021/05/26 07:31:03;;;;;;;2.43;0.90;;;19.90;36.70;;;;;;8293221;28;20042;-46
2021/05/26 07:35:04;;;;;;;1.75;0.90;;;20.00;36.70;;;;;;8295659;28;20134;-47
2021/05/26 07:39:05;;;;;;;;;;;20.00;36.70;;;;;;8280980;28;20038;-48
2021/05/26 07:43:05;;;;;;;1.13;0.80;;;20.00;36.70;;;;;;8260236;28;19921;-47
2021/05/26 07:47:06;;;;;;;2.60;1.20;;;19.90;36.60;;;;;;8287466;28;20135;-47
2021/05/26 07:51:07;;;;;;;1.20;0.97;;;20.00;36.70;;;;;;8292965;28;20041;-46
2021/05/26 07:55:08;;;;;;;1.67;1.15;;;20.00;36.70;;;;;;8276075;28;20100;-47
2021/05/26 07:59:08;;;;;;;2.15;0.95;;;20.00;36.70;;;;;;8258863;28;20030;-47
2021/05/26 08:03:09;;;;;;;1.70;0.80;;;20.00;36.70;;;;;;8259805;28;20083;-47
2021/05/26 08:07:10;;;;;;;1.03;0.70;;;20.00;36.70;;;;;;8280941;28;20056;-46
2021/05/26 08:11:10;;;;;;;1.95;0.70;;;20.00;36.70;;;;;;8294871;28;20033;-47
2021/05/26 08:15:13;;;;;;;1.43;0.97;;;20.00;36.60;;;;;;8292152;28;20050;-49
2021/05/26 08:19:13;;;;;;;2.33;1.00;;;20.00;36.60;;;;;;8292238;28;20084;-46
2021/05/26 08:23:15;;;;;;;1.70;1.03;;;20.00;36.60;;;;;;8260546;28;20625;-45
2021/05/26 08:27:15;;;;;;;1.90;1.10;;;20.00;36.60;;;;;;8274033;28;20026;-45
2021/05/26 08:31:16;;;;;;;1.07;0.63;;;20.10;36.70;;;;;;8295317;28;20037;-46
2021/05/26 08:35:17;;;;;;;1.77;1.48;;;20.10;36.60;;;;;;8284482;28;20035;-46
2021/05/26 08:39:18;;;;;;;1.80;1.07;;;20.10;36.60;;;;;;8273709;28;20042;-46
2021/05/26 08:43:18;;;;;;;2.45;1.10;;;20.10;36.60;;;;;;8269576;28;20034;-47
2021/05/26 08:47:19;;;;;;;2.43;1.00;;;20.10;37.20;;;;;;8298671;28;20030;-47
2021/05/26 08:51:22;;;;;;;3.67;1.20;;;20.10;36.60;;;;;;8297964;28;20100;-47
2021/05/26 08:55:24;;;;;;;2.95;1.02;;;20.10;36.60;;;;;;8297825;28;20047;-46
2021/05/26 08:59:25;;;;;;;3.70;1.33;;;20.10;36.60;;;;;;8296001;28;20053;-47
2021/05/26 09:03:29;;;;;;;1.40;0.97;;;20.10;36.60;;;;;;8302074;28;20482;-47
2021/05/26 09:07:32;;;;;;;1.70;1.10;;;20.10;36.60;;;;;;8297547;28;20053;-46
2021/05/26 09:11:33;;;;;;;2.15;1.10;;;20.10;36.60;;;;;;8263597;28;20438;-46
2021/05/26 09:15:39;;;;;;;1.65;1.08;;;20.10;36.50;;;;;;8281160;28;20398;-47
2021/05/26 09:19:40;;;;;;;1.63;1.08;;;20.10;36.50;;;;;;8294705;28;20463;-47
2021/05/26 09:23:40;;;;;;;1.30;0.90;;;20.10;36.50;;;;;;8269550;28;20063;-47
2021/05/26 09:27:41;;;;;;;1.37;0.83;;;20.10;36.50;;;;;;8281693;28;20084;-47
2021/05/26 09:31:42;;;;;;;1.47;1.10;;;20.10;36.50;;;;;;8294301;28;20080;-46
2021/05/26 09:35:42;;;;;;;1.30;0.80;;;20.10;36.50;;;;;;8264044;28;20057;-46
2021/05/26 09:39:58;;;;;;;1.77;1.10;;;20.10;36.60;;;;;;8285821;28;20265;-48
2021/05/26 09:44:00;;;;;;;1.90;1.25;;;20.10;36.50;;;;;;8295395;28;20041;-45
2021/05/26 09:48:02;;;;;;;1.05;0.90;;;20.10;36.60;;;;;;8296438;28;20042;-46
2021/05/26 09:52:03;;;;;;;3.40;1.30;;;20.10;36.60;;;;;;8295738;28;20390;-46
2021/05/26 09:56:03;;;;;;;2.43;1.00;;;20.10;36.50;;;;;;8289648;28;20058;-45
2021/05/26 10:00:05;;;;;;;2.77;1.03;;;20.10;36.50;;;;;;8267813;28;20026;-46
2021/05/26 10:04:06;;;;;;;4.53;1.65;;;20.10;36.60;;;;;;8263173;28;20125;-47
2021/05/26 10:08:12;;;;;;;3.08;2.10;;;20.10;36.60;;;;;;8261970;28;20468;-46
2021/05/26 10:12:13;;;;;;;3.42;1.10;;;20.10;36.60;;;;;;8276394;28;20038;-47
2021/05/26 10:16:18;;;;;;;1.93;1.03;;;20.10;36.60;;;;;;8278276;28;20049;-45
2021/05/26 10:20:24;;;;;;;1.67;1.05;;;20.10;36.50;;;;;;8291155;28;20277;-46
2021/05/26 10:24:24;;;;;;;2.33;1.13;;;20.10;36.50;;;;;;8295036;28;20069;-47
2021/05/26 10:28:25;;;;;;;1.90;1.27;;;20.10;36.60;;;;;;8295047;28;20064;-47
2021/05/26 10:32:28;;;;;;;1.67;0.90;;;20.10;36.60;;;;;;8293131;28;20284;-46
2021/05/26 10:36:52;;;;;;;1.40;1.00;;;20.10;36.60;;;;;;8299335;28;20380;-47
2021/05/26 10:40:56;;;;;;;1.48;0.85;;;20.10;36.60;;;;;;8293073;28;20059;-47
2021/05/26 10:45:09;;;;;;;1.10;0.93;;;20.10;36.70;;;;;;8294908;28;20034;-47
2021/05/26 10:49:11;;;;;;;3.60;1.20;;;20.10;36.60;;;;;;8273301;28;20042;-46
2021/05/26 10:53:15;;;;;;;2.10;1.20;;;20.10;36.70;;;;;;8260159;28;20046;-45
2021/05/26 10:57:15;;;;;;;2.00;1.10;;;20.10;36.70;;;;;;8266065;28;20042;-45
2021/05/26 11:01:16;;;;;;;3.37;1.20;;;20.10;36.70;;;;;;8283346;28;20034;-45
2021/05/26 11:05:32;;;;;;;4.10;1.00;;;20.10;36.70;;;;;;8286686;28;20086;-47
2021/05/26 11:10:02;;;;;;;1.98;0.90;;;20.10;36.70;;;;;;8261055;28;20049;-45
2021/05/26 11:14:13;;;;;;;2.00;1.02;;;20.10;36.80;;;;;;8259644;28;20503;-46
2021/05/26 11:18:29;;;;;;;2.10;1.10;;;20.10;36.80;;;;;;8265184;28;20042;-47
2021/05/26 11:22:30;;;;;;;1.98;1.10;;;20.10;36.80;;;;;;8284804;28;20053;-46
2021/05/26 11:26:31;;;;;;;2.67;1.13;;;20.10;36.90;;;;;;8292315;28;20034;-47
2021/05/26 11:30:32;;;;;;;;;;;20.10;36.80;;;;;;8277698;28;20125;-46
2021/05/26 11:34:34;;;;;;;2.00;1.20;;;20.10;36.90;;;;;;8284650;28;19921;-48
2021/05/26 11:38:35;;;;;;;3.33;1.30;;;20.10;36.90;;;;;;8296008;28;20079;-45
2021/05/26 11:42:35;;;;;;;1.87;1.00;;;20.10;36.90;;;;;;8293017;28;20045;-45
2021/05/26 11:46:36;;;;;;;1.60;0.93;;;20.10;36.90;;;;;;8291117;28;20045;-48
2021/05/26 11:50:39;;;;;;;1.27;0.82;;;20.10;37.00;;;;;;8292622;28;20390;-45
2021/05/26 11:55:01;;;;;;;1.75;0.90;;;20.10;37.00;;;;;;8296787;28;20069;-46
2021/05/26 11:59:01;;;;;;;;;;;20.20;37.00;;;;;;8291586;28;20030;-46
2021/05/26 12:03:09;;;;;;;2.27;0.90;;;20.20;37.00;;;;;;8292420;28;19929;-45
2021/05/26 12:07:09;;;;;;;2.22;1.23;;;20.20;37.00;;;;;;8292900;28;20479;-47
2021/05/26 12:11:14;;;;;;;2.47;1.30;;;20.20;37.00;;;;;;8261374;28;22074;-46
2021/05/26 12:15:15;;;;;;;2.25;1.35;;;20.20;37.00;;;;;;8264095;28;20038;-46
2021/05/26 12:19:16;;;;;;;1.55;1.10;;;20.20;37.00;;;;;;8261150;28;20039;-48
2021/05/26 12:23:36;;;;;;;2.15;0.90;;;20.30;37.00;;;;;;8270824;28;20058;-46
2021/05/26 12:27:43;;;;;;;1.58;0.98;;;20.30;37.00;;;;;;8298638;28;20026;-47
2021/05/26 12:31:43;;;;;;;2.30;1.10;;;20.30;37.00;;;;;;8298525;28;20071;-48
2021/05/26 12:35:57;;;;;;;1.80;1.10;;;20.30;37.00;;;;;;8301597;28;20403;-47
2021/05/26 12:39:58;;;;;;;1.50;1.10;;;20.30;37.00;;;;;;8298874;28;20045;-46
2021/05/26 12:44:20;;;;;;;1.57;0.93;;;20.30;37.00;;;;;;8293631;28;20030;-48
2021/05/26 12:48:22;;;;;;;2.55;1.55;;;20.30;37.00;;;;;;8280314;28;20038;-47
2021/05/26 12:52:25;;;;;;;1.85;0.95;;;20.40;37.00;;;;;;8279623;28;20128;-47
2021/05/26 12:56:30;;;;;;;1.45;0.95;;;20.40;37.00;;;;;;8270813;28;20530;-46
2021/05/26 13:00:30;;;;;;;1.70;0.88;;;20.40;37.00;;;;;;8297949;28;20065;-47
2021/05/26 13:04:31;;;;;;;2.80;0.90;;;20.40;37.00;;;;;;8297823;28;20034;-49
2021/05/26 13:08:32;;;;;;;1.47;0.97;;;20.40;36.90;;;;;;8296076;28;20030;-48
2021/05/26 13:12:32;;;;;;;2.43;1.03;;;20.40;36.90;;;;;;8316809;28;20129;-48
2021/05/26 13:16:33;;;;;;;2.00;1.20;;;20.40;37.00;;;;;;8297269;28;20077;-47
2021/05/26 13:20:36;;;;;;;3.10;1.60;;;20.40;36.90;;;;;;8304936;28;20036;-47
2021/05/26 13:24:36;;;;;;;3.55;2.20;;;20.50;37.00;;;;;;8313103;28;20268;-47
2021/05/26 13:28:39;;;;;;;3.53;1.93;;;20.50;36.90;;;;;;8324481;28;20374;-48
2021/05/26 13:32:39;;;;;;;3.53;1.73;;;20.40;36.90;;;;;;8360714;28;20037;-47
2021/05/26 13:36:40;;;;;;;4.23;1.90;;;20.50;37.00;;;;;;8362233;28;20072;-47
2021/05/26 13:40:45;;;;;;;4.77;2.80;;;20.50;37.00;;;;;;8349176;28;20486;-49
2021/05/26 13:44:45;;;;;;;6.78;2.97;;;20.50;37.00;;;;;;8329327;28;20030;-48
2021/05/26 13:48:46;;;;;;;5.17;2.33;;;20.50;37.00;;;;;;8333128;28;20531;-47
2021/05/26 13:52:48;;;;;;;4.63;2.50;;;20.50;37.00;;;;;;8327467;28;20036;-47
2021/05/26 13:56:50;;;;;;;5.80;2.83;;;20.50;37.00;;;;;;8318516;28;20045;-47
2021/05/26 14:00:50;;;;;;;6.25;2.42;;;20.50;37.00;;;;;;8295575;28;20057;-47
2021/05/26 14:04:51;;;;;;;5.82;2.92;;;20.50;37.00;;;;;;8333462;28;20045;-48
2021/05/26 14:08:51;;;;;;;5.67;3.07;;;20.50;37.10;;;;;;8361118;28;20087;-47
2021/05/26 14:12:55;;;;;;;7.10;3.80;;;20.50;37.10;;;;;;8360476;28;20093;-47
2021/05/26 14:16:56;;;;;;;4.82;2.78;;;20.50;37.10;;;;;;8359048;28;20041;-46
2021/05/26 14:20:57;;;;;;;7.57;3.73;;;20.50;37.20;;;;;;8361321;28;20052;-50
2021/05/26 14:24:58;;;;;;;6.22;3.53;;;20.50;37.20;;;;;;8331314;28;20036;-47
2021/05/26 14:28:59;;;;;;;7.15;3.58;;;20.50;37.30;;;;;;8330032;28;20029;-46
2021/05/26 14:32:59;;;;;;;8.60;3.60;;;20.50;37.30;;;;;;8346814;28;20132;-47
2021/05/26 14:37:00;;;;;;;5.93;3.13;;;20.50;37.30;;;;;;8330749;28;20029;-47
2021/05/26 14:41:02;;;;;;;7.17;3.47;;;20.50;37.40;;;;;;8362516;28;20437;-47
2021/05/26 14:45:03;;;;;;;6.00;3.28;;;20.50;37.40;;;;;;8332694;28;20037;-47
2021/05/26 14:49:04;;;;;;;6.57;3.13;;;20.50;37.50;;;;;;8344202;28;20032;-47
2021/05/26 14:53:06;;;;;;;4.40;2.38;;;20.50;37.40;;;;;;8350017;28;20121;-46
2021/05/26 14:57:08;;;;;;;6.00;2.92;;;20.50;37.50;;;;;;8330822;28;20103;-47
2021/05/26 15:01:09;;;;;;;6.95;3.67;;;20.50;37.40;;;;;;8326856;28;20387;-47
2021/05/26 15:05:11;;;;;;;6.45;3.30;;;20.50;37.40;;;;;;8346168;28;20057;-46
2021/05/26 15:09:11;;;;;;;5.38;2.97;;;20.50;37.50;;;;;;8346910;28;20088;-47
2021/05/26 15:13:12;;;;;;;6.63;3.13;;;20.50;37.50;;;;;;8345501;28;20041;-47
2021/05/26 15:17:13;;;;;;;7.03;2.93;;;20.50;37.50;;;;;;8334051;28;20040;-46
2021/05/26 15:21:14;;;;;;;6.40;2.73;;;20.50;37.50;;;;;;8358593;28;20037;-47
2021/05/26 15:25:15;;;;;;;4.18;2.70;;;20.50;37.50;;;;;;8342559;28;20041;-46
2021/05/26 15:29:16;;;;;;;;;;;20.50;37.50;;;;;;8356528;28;20029;-49
2021/05/26 15:33:17;;;;;;;5.03;2.63;;;20.50;37.60;;;;;;8363446;28;20300;-46
2021/05/26 15:37:17;;;;;;;5.85;2.50;;;20.50;37.60;;;;;;8328732;28;20096;-48
2021/05/26 15:41:19;;;;;;;4.27;2.43;;;20.50;37.60;;;;;;8343204;28;20059;-46
2021/05/26 15:45:20;;;;;;;5.22;2.90;;;20.50;37.60;;;;;;8347984;28;20034;-45
2021/05/26 15:49:21;;;;;;;5.13;2.90;;;20.40;37.60;;;;;;8326241;28;20128;-46
2021/05/26 15:53:22;;;;;;;5.75;3.25;;;20.50;37.60;;;;;;8326975;28;20033;-46
2021/05/26 15:57:22;;;;;;;4.93;2.70;;;20.40;37.60;;;;;;8324710;28;20529;-47
2021/05/26 16:01:23;;;;;;;5.10;2.63;;;20.50;37.60;;;;;;8338653;28;20025;-50
2021/05/26 16:05:25;;;;;;;4.37;2.60;;;20.50;37.60;;;;;;8352096;28;20060;-49
2021/05/26 16:09:25;;;;;;;4.55;2.45;;;20.50;37.70;;;;;;8329362;28;20065;-52
2021/05/26 16:13:26;;;;;;;6.00;3.03;;;20.50;37.70;;;;;;8312100;28;20040;-47
2021/05/26 16:17:27;;;;;;;4.30;2.63;;;20.50;37.80;;;;;;8340191;28;20049;-47
2021/05/26 16:21:27;;;;;;;4.53;2.53;;;20.50;37.70;;;;;;8331836;28;20029;-48
2021/05/26 16:25:29;;;;;;;6.90;3.13;;;20.50;37.80;;;;;;8361840;28;20037;-47
2021/05/26 16:29:29;;;;;;;4.35;2.70;;;20.50;37.80;;;;;;8324374;28;20025;-46
2021/05/26 16:33:30;;;;;;;4.70;2.58;;;20.50;37.80;;;;;;8345121;28;20411;-46
2021/05/26 16:37:30;;;;;;;4.80;2.73;;;20.50;37.80;;;;;;8356917;28;20045;-48
2021/05/26 16:41:31;;;;;;;4.27;2.77;;;20.50;37.80;;;;;;8353704;28;20028;-50
2021/05/26 16:45:32;;;;;;;6.27;2.50;;;20.50;37.90;;;;;;8328637;28;20039;-48
2021/05/26 16:49:32;;;;;;;5.00;2.30;;;20.50;37.80;;;;;;8348744;28;20033;-47
2021/05/26 16:53:35;;;;;;;4.43;2.03;;;20.50;37.90;;;;;;8354242;28;20040;-48
2021/05/26 16:57:35;;;;;;;4.68;2.58;;;20.40;37.90;;;;;;8351565;28;20077;-47
2021/05/26 17:01:37;;;;;;;4.57;2.47;;;20.50;37.90;;;;;;8327002;28;20041;-49
2021/05/26 17:05:38;;;;;;;3.92;2.50;;;20.40;37.90;;;;;;8326432;28;20087;-48
2021/05/26 17:09:38;;;;;;;4.57;2.20;;;20.40;38.00;;;;;;8347070;28;20033;-48
2021/05/26 17:13:39;;;;;;;4.40;2.70;;;20.40;38.00;;;;;;8361100;28;20154;-51
2021/05/26 17:17:40;;;;;;;3.93;2.10;;;20.40;38.00;;;;;;8367282;28;20037;-50
2021/05/26 17:21:40;;;;;;;6.23;2.90;;;20.40;38.00;;;;;;8361985;28;20295;-47
2021/05/26 17:25:41;;;;;;;4.63;2.30;;;20.40;38.00;;;;;;8349063;28;20362;-49
2021/05/26 17:29:42;;;;;;;3.65;2.30;;;20.40;38.00;;;;;;8329752;28;20042;-50
2021/05/26 17:33:45;;;;;;;4.00;2.10;;;20.40;38.10;;;;;;8332318;28;20064;-48
2021/05/26 17:37:46;;;;;;;3.80;2.22;;;20.40;38.10;;;;;;8364960;28;20044;-48
2021/05/26 17:41:46;;;;;;;4.17;2.10;;;20.40;38.10;;;;;;8361617;28;20029;-51
2021/05/26 17:45:47;;;;;;;3.30;2.17;;;20.40;38.10;;;;;;8361119;28;20025;-46
2021/05/26 17:49:49;;;;;;;3.53;1.98;;;20.40;38.10;;;;;;8353293;28;20065;-47
2021/05/26 17:53:50;;;;;;;4.20;2.15;;;20.40;38.00;;;;;;8343733;28;20112;-50
2021/05/26 17:57:51;;;;;;;3.13;2.05;;;20.40;38.10;;;;;;8331401;28;20053;-51
2021/05/26 18:01:51;;;;;;;5.15;3.03;;;20.40;38.10;;;;;;8333171;28;20026;-50
2021/05/26 18:05:52;;;;;;;4.73;2.07;;;20.40;38.00;;;;;;8339381;28;20037;-47
2021/05/26 18:09:53;;;;;;;3.00;1.93;;;20.40;38.00;;;;;;8360965;28;20486;-49
2021/05/26 18:13:53;;;;;;;3.38;1.85;;;20.30;38.00;;;;;;8364169;28;20033;-50
2021/05/26 18:17:55;;;;;;;2.47;1.80;;;20.30;37.90;;;;;;8337332;28;20061;-48
2021/05/26 18:21:57;;;;;;;2.92;1.70;;;20.30;37.90;;;;;;8328372;28;20041;-50
2021/05/26 18:25:57;;;;;;;5.75;2.20;;;20.30;37.90;;;;;;8349040;28;20037;-47
2021/05/26 18:29:58;;;;;;;4.10;2.10;;;20.30;37.90;;;;;;8332390;28;20057;-49
2021/05/26 18:33:59;;;;;;;4.07;2.20;;;20.30;37.90;;;;;;8355790;28;20060;-48
2021/05/26 18:37:59;;;;;;;3.40;1.87;;;20.30;38.40;;;;;;8358823;28;20091;-47
2021/05/26 18:42:00;;;;;;;3.53;2.10;;;20.30;37.90;;;;;;8357854;28;20029;-48
2021/05/26 18:46:00;;;;;;;3.10;1.90;;;20.30;37.90;;;;;;8364770;28;20211;-49
2021/05/26 18:50:01;;;;;;;3.10;2.20;;;20.30;37.90;;;;;;8326375;28;20037;-50
2021/05/26 18:54:05;;;;;;;3.75;1.80;;;20.30;37.90;;;;;;8349106;28;20481;-48
2021/05/26 18:58:09;;;;;;;3.80;1.70;;;20.30;37.90;;;;;;8359697;28;20069;-48
2021/05/26 19:02:10;;;;;;;2.42;1.58;;;20.30;37.90;;;;;;8357392;28;20049;-47
2021/05/26 19:06:13;;;;;;;2.83;1.53;;;20.30;37.90;;;;;;8363934;28;20039;-47
2021/05/26 19:10:14;;;;;;;2.42;1.63;;;20.30;37.80;;;;;;8359253;28;20064;-47
2021/05/26 19:14:15;;;;;;;;;;;20.30;37.90;;;;;;8340252;28;20119;-49
2021/05/26 19:18:16;;;;;;;3.10;1.63;;;20.30;37.80;;;;;;8333666;28;19921;-45
2021/05/26 19:22:19;;;;;;;2.63;1.60;;;20.20;37.80;;;;;;8363417;28;20144;-45
2021/05/26 19:26:19;;;;;;;4.22;2.00;;;20.20;37.80;;;;;;8326745;28;20025;-48
2021/05/26 19:30:21;;;;;;;2.50;1.67;;;20.20;37.90;;;;;;8346501;28;20101;-49
2021/05/26 19:34:21;;;;;;;3.33;1.70;;;20.20;37.80;;;;;;8347081;28;20148;-46
2021/05/26 19:38:22;;;;;;;2.20;1.60;;;20.20;37.80;;;;;;8325647;28;20052;-46
2021/05/26 19:42:23;;;;;;;3.07;1.80;;;20.20;37.90;;;;;;8362998;28;20077;-47
2021/05/26 19:46:26;;;;;;;2.95;1.50;;;20.30;37.90;;;;;;8357593;28;20083;-46
2021/05/26 19:50:27;;;;;;;2.30;1.33;;;20.20;37.90;;;;;;8356112;28;20033;-46
2021/05/26 19:54:28;;;;;;;3.20;1.88;;;20.20;37.90;;;;;;8352857;28;20021;-48
2021/05/26 19:58:28;;;;;;;3.33;1.57;;;20.20;37.90;;;;;;8329613;28;20049;-45
2021/05/26 20:02:29;;;;;;;2.33;1.40;;;20.20;37.90;;;;;;8327418;28;20040;-48
2021/05/26 20:06:29;;;;;;;2.33;1.40;;;20.20;37.90;;;;;;8325180;28;20037;-49
2021/05/26 20:10:30;;;;;;;3.60;1.83;;;20.20;37.90;;;;;;8334133;28;20537;-49
2021/05/26 20:14:31;;;;;;;2.30;1.63;;;20.20;37.80;;;;;;8360757;28;20025;-47
2021/05/26 20:18:31;;;;;;;3.10;1.70;;;20.20;37.90;;;;;;8326565;28;20418;-48
2021/05/26 20:22:32;;;;;;;2.17;1.50;;;20.20;37.80;;;;;;8324687;28;20076;-46
2021/05/26 20:26:33;;;;;;;4.00;1.50;;;20.20;37.90;;;;;;8335526;28;20029;-46
2021/05/26 20:30:33;;;;;;;2.80;1.43;;;20.20;37.90;;;;;;8354131;28;20389;-48
2021/05/26 20:34:34;;;;;;;2.50;1.30;;;20.20;37.90;;;;;;8328961;28;20030;-47
2021/05/26 20:38:35;;;;;;;1.93;1.43;;;20.20;37.90;;;;;;8348454;28;20052;-50
2021/05/26 20:42:36;;;;;;;2.67;1.50;;;20.20;37.90;;;;;;8345824;28;20033;-46
2021/05/26 20:46:37;;;;;;;2.33;1.70;;;20.20;38.00;;;;;;8329931;28;20121;-46
2021/05/26 20:50:37;;;;;;;1.83;1.60;;;20.20;38.00;;;;;;8335660;28;20037;-48
2021/05/26 20:54:38;;;;;;;2.37;1.57;;;20.20;38.00;;;;;;8330750;28;20040;-46
2021/05/26 20:58:38;;;;;;;2.17;1.47;;;20.20;38.00;;;;;;8349520;28;20039;-48